sensor_id;sensor_type;location;lat;lon;timestamp;pressure;altitude;pressure_sealevel;temperature;humidity
15314;BME280;7757;52.626;4.746;2023-04-08T00:01:57;102170.97;;;15.92;59.89
15314;BME280;7757;52.626;4.746;2023-04-08T00:04:42;102170.13;;;15.92;59.92
15314;BME280;7757;52.626;4.746;2023-04-08T00:07:28;102174.03;;;15.89;60.02
15314;BME280;7757;52.626;4.746;2023-04-08T00:10:13;102181.28;;;15.89;59.83
15314;BME280;7757;52.626;4.746;2023-04-08T00:12:58;102169.22;;;15.85;59.75
15314;BME280;7757;52.626;4.746;2023-04-08T00:15:45;102172.38;;;15.88;59.09
15314;BME280;7757;52.626;4.746;2023-04-08T00:18:31;102182.34;;;15.88;59.32
15314;BME280;7757;52.626;4.746;2023-04-08T00:21:16;102179.66;;;15.88;59.37
15314;BME280;7757;52.626;4.746;2023-04-08T00:24:04;102177.13;;;15.86;59.89
15314;BME280;7757;52.626;4.746;2023-04-08T00:26:50;102174.63;;;15.85;59.38
15314;BME280;7757;52.626;4.746;2023-04-08T00:29:35;102164.38;;;15.80;59.74
15314;BME280;7757;52.626;4.746;2023-04-08T00:32:22;102171.91;;;15.85;59.18
15314;BME280;7757;52.626;4.746;2023-04-08T00:35:07;102177.31;;;15.85;59.54
15314;BME280;7757;52.626;4.746;2023-04-08T00:37:53;102174.63;;;15.85;60.25
15314;BME280;7757;52.626;4.746;2023-04-08T00:40:39;102172.28;;;15.82;59.55
15314;BME280;7757;52.626;4.746;2023-04-08T00:43:24;102176.66;;;15.83;60.20
15314;BME280;7757;52.626;4.746;2023-04-08T00:46:09;102185.59;;;15.83;60.39
15314;BME280;7757;52.626;4.746;2023-04-08T00:48:56;102182.03;;;15.83;59.97
15314;BME280;7757;52.626;4.746;2023-04-08T00:51:42;102180.19;;;15.83;60.00
15314;BME280;7757;52.626;4.746;2023-04-08T00:54:27;102182.25;;;15.81;59.76
15314;BME280;7757;52.626;4.746;2023-04-08T00:57:12;102170.53;;;15.74;60.12
15314;BME280;7757;52.626;4.746;2023-04-08T00:59:58;102175.63;;;15.84;59.13
15314;BME280;7757;52.626;4.746;2023-04-08T01:02:46;102177.59;;;15.75;60.11
15314;BME280;7757;52.626;4.746;2023-04-08T01:05:42;102182.63;;;15.78;59.35
15314;BME280;7757;52.626;4.746;2023-04-08T01:08:31;102177.78;;;15.74;59.09
15314;BME280;7757;52.626;4.746;2023-04-08T01:11:17;102185.13;;;15.80;59.88
15314;BME280;7757;52.626;4.746;2023-04-08T01:14:05;102183.00;;;15.75;59.81
15314;BME280;7757;52.626;4.746;2023-04-08T01:16:53;102180.94;;;15.77;60.16
15314;BME280;7757;52.626;4.746;2023-04-08T01:19:39;102195.91;;;15.80;60.15
15314;BME280;7757;52.626;4.746;2023-04-08T01:22:43;102189.22;;;15.76;59.68
15314;BME280;7757;52.626;4.746;2023-04-08T01:25:31;102179.34;;;15.68;59.43
15314;BME280;7757;52.626;4.746;2023-04-08T01:28:21;102190.06;;;15.76;59.53
15314;BME280;7757;52.626;4.746;2023-04-08T01:31:07;102195.47;;;15.76;60.17
15314;BME280;7757;52.626;4.746;2023-04-08T01:33:54;102204.38;;;15.77;60.35
15314;BME280;7757;52.626;4.746;2023-04-08T01:36:43;102191.63;;;15.71;60.29
15314;BME280;7757;52.626;4.746;2023-04-08T01:39:30;102195.63;;;15.75;59.35
15314;BME280;7757;52.626;4.746;2023-04-08T01:42:15;102193.78;;;15.75;59.88
15314;BME280;7757;52.626;4.746;2023-04-08T01:45:02;102202.03;;;15.74;59.29
15314;BME280;7757;52.626;4.746;2023-04-08T01:47:48;102193.94;;;15.74;59.34
15314;BME280;7757;52.626;4.746;2023-04-08T01:50:34;102203.47;;;15.70;60.22
15314;BME280;7757;52.626;4.746;2023-04-08T01:53:20;102195.53;;;15.68;59.97
15314;BME280;7757;52.626;4.746;2023-04-08T01:56:08;102198.91;;;15.70;59.29
15314;BME280;7757;52.626;4.746;2023-04-08T01:58:57;102194.72;;;15.68;59.45
15314;BME280;7757;52.626;4.746;2023-04-08T02:01:46;102199.06;;;15.69;60.43
15314;BME280;7757;52.626;4.746;2023-04-08T02:04:33;102195.75;;;15.67;59.94
15314;BME280;7757;52.626;4.746;2023-04-08T02:07:18;102196.75;;;15.66;59.83
15314;BME280;7757;52.626;4.746;2023-04-08T02:10:04;102201.97;;;15.67;60.52
15314;BME280;7757;52.626;4.746;2023-04-08T02:12:50;102200.50;;;15.65;60.42
15314;BME280;7757;52.626;4.746;2023-04-08T02:15:41;102194.16;;;15.57;60.20
15314;BME280;7757;52.626;4.746;2023-04-08T02:18:30;102210.25;;;15.66;59.75
15314;BME280;7757;52.626;4.746;2023-04-08T02:21:17;102205.88;;;15.65;59.80
15314;BME280;7757;52.626;4.746;2023-04-08T02:24:07;102200.19;;;15.59;59.37
15314;BME280;7757;52.626;4.746;2023-04-08T02:26:55;102200.88;;;15.61;59.56
15314;BME280;7757;52.626;4.746;2023-04-08T02:29:41;102212.47;;;15.62;59.76
15314;BME280;7757;52.626;4.746;2023-04-08T02:32:27;102217.03;;;15.61;60.30
15314;BME280;7757;52.626;4.746;2023-04-08T02:35:16;102207.81;;;15.56;60.05
15314;BME280;7757;52.626;4.746;2023-04-08T02:38:02;102220.56;;;15.62;60.00
15314;BME280;7757;52.626;4.746;2023-04-08T02:40:48;102214.03;;;15.56;59.83
15314;BME280;7757;52.626;4.746;2023-04-08T02:43:33;102218.31;;;15.51;59.98
15314;BME280;7757;52.626;4.746;2023-04-08T02:46:20;102218.16;;;15.52;60.02
15314;BME280;7757;52.626;4.746;2023-04-08T02:49:05;102223.63;;;15.59;60.18
15314;BME280;7757;52.626;4.746;2023-04-08T02:51:52;102236.28;;;15.58;60.04
15314;BME280;7757;52.626;4.746;2023-04-08T02:54:37;102215.81;;;15.49;59.47
15314;BME280;7757;52.626;4.746;2023-04-08T02:57:22;102232.75;;;15.58;60.53
15314;BME280;7757;52.626;4.746;2023-04-08T03:00:09;102231.06;;;15.57;59.34
15314;BME280;7757;52.626;4.746;2023-04-08T03:02:54;102239.16;;;15.57;60.27
15314;BME280;7757;52.626;4.746;2023-04-08T03:05:40;102243.06;;;15.54;60.66
15314;BME280;7757;52.626;4.746;2023-04-08T03:08:27;102240.16;;;15.56;60.33
15314;BME280;7757;52.626;4.746;2023-04-08T03:11:12;102223.41;;;15.46;60.06
15314;BME280;7757;52.626;4.746;2023-04-08T03:13:57;102238.03;;;15.51;60.04
15314;BME280;7757;52.626;4.746;2023-04-08T03:16:42;102247.81;;;15.52;60.45
15314;BME280;7757;52.626;4.746;2023-04-08T03:19:28;102250.50;;;15.52;59.83
15314;BME280;7757;52.626;4.746;2023-04-08T03:22:13;102240.09;;;15.49;60.36
15314;BME280;7757;52.626;4.746;2023-04-08T03:25:00;102247.34;;;15.49;59.50
15314;BME280;7757;52.626;4.746;2023-04-08T03:27:45;102242.44;;;15.44;60.09
15314;BME280;7757;52.626;4.746;2023-04-08T03:30:31;102243.13;;;15.46;60.47
15314;BME280;7757;52.626;4.746;2023-04-08T03:33:16;102250.03;;;15.49;59.34
15314;BME280;7757;52.626;4.746;2023-04-08T03:36:02;102258.28;;;15.47;60.21
15314;BME280;7757;52.626;4.746;2023-04-08T03:38:47;102259.28;;;15.46;60.09
15314;BME280;7757;52.626;4.746;2023-04-08T03:41:34;102261.16;;;15.46;59.98
15314;BME280;7757;52.626;4.746;2023-04-08T03:44:19;102256.13;;;15.43;60.45
15314;BME280;7757;52.626;4.746;2023-04-08T03:47:05;102259.47;;;15.45;59.54
15314;BME280;7757;52.626;4.746;2023-04-08T03:49:51;102262.16;;;15.45;59.91
15314;BME280;7757;52.626;4.746;2023-04-08T03:52:37;102258.81;;;15.43;59.81
15314;BME280;7757;52.626;4.746;2023-04-08T03:55:22;102261.50;;;15.43;60.44
15314;BME280;7757;52.626;4.746;2023-04-08T03:58:09;102265.22;;;15.42;59.35
15314;BME280;7757;52.626;4.746;2023-04-08T04:00:54;102268.13;;;15.40;59.96
15314;BME280;7757;52.626;4.746;2023-04-08T04:03:39;102267.28;;;15.40;59.62
15314;BME280;7757;52.626;4.746;2023-04-08T04:06:25;102265.94;;;15.36;60.51
15314;BME280;7757;52.626;4.746;2023-04-08T04:09:10;102266.78;;;15.36;59.67
15314;BME280;7757;52.626;4.746;2023-04-08T04:11:55;102264.28;;;15.35;59.34
15314;BME280;7757;52.626;4.746;2023-04-08T04:14:42;102265.78;;;15.37;60.51
15314;BME280;7757;52.626;4.746;2023-04-08T04:17:27;102261.75;;;15.33;60.05
15314;BME280;7757;52.626;4.746;2023-04-08T04:20:13;102268.84;;;15.34;60.00
15314;BME280;7757;52.626;4.746;2023-04-08T04:22:59;102272.38;;;15.35;59.73
15314;BME280;7757;52.626;4.746;2023-04-08T04:25:44;102274.88;;;15.36;59.53
15314;BME280;7757;52.626;4.746;2023-04-08T04:28:30;102283.97;;;15.35;59.31
15314;BME280;7757;52.626;4.746;2023-04-08T04:31:20;102285.03;;;15.34;60.34
15314;BME280;7757;52.626;4.746;2023-04-08T04:34:05;102285.84;;;15.35;59.96
15314;BME280;7757;52.626;4.746;2023-04-08T04:36:51;102289.72;;;15.32;59.31
15314;BME280;7757;52.626;4.746;2023-04-08T04:39:36;102290.78;;;15.31;60.60
15314;BME280;7757;52.626;4.746;2023-04-08T04:42:21;102295.13;;;15.32;59.62
15314;BME280;7757;52.626;4.746;2023-04-08T04:45:08;102304.06;;;15.33;59.69
15314;BME280;7757;52.626;4.746;2023-04-08T04:47:55;102290.13;;;15.29;59.93
15314;BME280;7757;52.626;4.746;2023-04-08T04:50:40;102302.41;;;15.32;59.77
15314;BME280;7757;52.626;4.746;2023-04-08T04:53:26;102309.63;;;15.31;59.54
15314;BME280;7757;52.626;4.746;2023-04-08T04:56:11;102307.47;;;15.27;60.40
15314;BME280;7757;52.626;4.746;2023-04-08T04:58:56;102311.69;;;15.29;59.59
15314;BME280;7757;52.626;4.746;2023-04-08T05:01:41;102305.44;;;15.29;59.49
15314;BME280;7757;52.626;4.746;2023-04-08T05:04:28;102311.50;;;15.31;59.20
15314;BME280;7757;52.626;4.746;2023-04-08T05:07:14;102303.28;;;15.24;59.20
15314;BME280;7757;52.626;4.746;2023-04-08T05:09:59;102297.88;;;15.24;59.31
15314;BME280;7757;52.626;4.746;2023-04-08T05:12:45;102310.66;;;15.30;59.11
15314;BME280;7757;52.626;4.746;2023-04-08T05:15:31;102310.66;;;15.30;59.08
15314;BME280;7757;52.626;4.746;2023-04-08T05:18:16;102315.19;;;15.30;58.91
15314;BME280;7757;52.626;4.746;2023-04-08T05:21:03;102312.50;;;15.30;59.10
15314;BME280;7757;52.626;4.746;2023-04-08T05:23:48;102322.28;;;15.31;60.00
15314;BME280;7757;52.626;4.746;2023-04-08T05:26:36;102324.78;;;15.32;59.81
15314;BME280;7757;52.626;4.746;2023-04-08T05:29:22;102326.28;;;15.35;59.40
15314;BME280;7757;52.626;4.746;2023-04-08T05:32:07;102333.81;;;15.39;59.04
15314;BME280;7757;52.626;4.746;2023-04-08T05:34:52;102333.47;;;15.42;59.38
15314;BME280;7757;52.626;4.746;2023-04-08T05:37:39;102337.66;;;15.45;58.58
15314;BME280;7757;52.626;4.746;2023-04-08T05:40:24;102335.31;;;15.42;59.19
15314;BME280;7757;52.626;4.746;2023-04-08T05:43:09;102338.69;;;15.44;59.04
15314;BME280;7757;52.626;4.746;2023-04-08T05:45:54;102345.53;;;15.54;58.54
15314;BME280;7757;52.626;4.746;2023-04-08T05:48:40;102349.72;;;15.57;58.39
15314;BME280;7757;52.626;4.746;2023-04-08T05:51:25;102346.53;;;15.53;58.53
15314;BME280;7757;52.626;4.746;2023-04-08T05:54:12;102355.88;;;15.66;59.04
15314;BME280;7757;52.626;4.746;2023-04-08T05:56:57;102356.72;;;15.66;58.41
15314;BME280;7757;52.626;4.746;2023-04-08T05:59:42;102357.69;;;15.73;57.89
15314;BME280;7757;52.626;4.746;2023-04-08T06:02:28;102370.59;;;15.78;57.72
15314;BME280;7757;52.626;4.746;2023-04-08T06:05:13;102365.13;;;15.86;57.65
15314;BME280;7757;52.626;4.746;2023-04-08T06:07:58;102370.63;;;15.92;58.10
15314;BME280;7757;52.626;4.746;2023-04-08T06:10:49;102380.69;;;15.98;57.60
15314;BME280;7757;52.626;4.746;2023-04-08T06:13:34;102366.00;;;16.01;57.58
15314;BME280;7757;52.626;4.746;2023-04-08T06:16:20;102371.69;;;16.06;57.81
15314;BME280;7757;52.626;4.746;2023-04-08T06:19:05;102355.19;;;16.01;56.97
15314;BME280;7757;52.626;4.746;2023-04-08T06:21:50;102378.13;;;16.19;57.34
15314;BME280;7757;52.626;4.746;2023-04-08T06:24:41;102385.22;;;16.35;56.67
15314;BME280;7757;52.626;4.746;2023-04-08T06:27:28;102388.72;;;16.50;56.78
15314;BME280;7757;52.626;4.746;2023-04-08T06:30:13;102391.28;;;16.66;56.09
15314;BME280;7757;52.626;4.746;2023-04-08T06:32:59;102398.34;;;16.82;56.30
15314;BME280;7757;52.626;4.746;2023-04-08T06:35:44;102381.94;;;16.84;55.80
15314;BME280;7757;52.626;4.746;2023-04-08T06:38:29;102410.50;;;17.07;55.58
15314;BME280;7757;52.626;4.746;2023-04-08T06:41:15;102413.53;;;17.19;55.59
15314;BME280;7757;52.626;4.746;2023-04-08T06:44:01;102416.16;;;17.27;55.49
15314;BME280;7757;52.626;4.746;2023-04-08T06:46:47;102411.88;;;17.39;55.30
15314;BME280;7757;52.626;4.746;2023-04-08T06:49:32;102423.34;;;17.56;54.90
15314;BME280;7757;52.626;4.746;2023-04-08T06:52:17;102416.38;;;17.68;54.53
15314;BME280;7757;52.626;4.746;2023-04-08T06:55:03;102421.91;;;17.81;54.64
15314;BME280;7757;52.626;4.746;2023-04-08T06:57:49;102426.16;;;17.90;54.25
15314;BME280;7757;52.626;4.746;2023-04-08T07:00:36;102432.78;;;18.09;54.14
15314;BME280;7757;52.626;4.746;2023-04-08T07:03:21;102432.84;;;18.22;53.63
15314;BME280;7757;52.626;4.746;2023-04-08T07:06:07;102434.66;;;18.36;53.54
15314;BME280;7757;52.626;4.746;2023-04-08T07:08:52;102442.41;;;18.46;53.42
15314;BME280;7757;52.626;4.746;2023-04-08T07:11:37;102426.63;;;18.49;52.91
15314;BME280;7757;52.626;4.746;2023-04-08T07:14:22;102437.28;;;18.57;52.85
15314;BME280;7757;52.626;4.746;2023-04-08T07:17:09;102441.78;;;18.71;52.47
15314;BME280;7757;52.626;4.746;2023-04-08T07:19:55;102448.25;;;18.77;52.48
15314;BME280;7757;52.626;4.746;2023-04-08T07:22:40;102454.75;;;18.82;52.20
15314;BME280;7757;52.626;4.746;2023-04-08T07:25:25;102462.28;;;18.87;52.16
15314;BME280;7757;52.626;4.746;2023-04-08T07:28:11;102461.91;;;18.97;51.74
15314;BME280;7757;52.626;4.746;2023-04-08T07:31:00;102473.19;;;19.00;51.77
15314;BME280;7757;52.626;4.746;2023-04-08T07:33:53;102471.56;;;19.06;51.76
15314;BME280;7757;52.626;4.746;2023-04-08T07:36:38;102474.31;;;19.12;51.51
15314;BME280;7757;52.626;4.746;2023-04-08T07:39:23;102476.38;;;19.17;50.94
15314;BME280;7757;52.626;4.746;2023-04-08T07:42:09;102474.75;;;19.22;50.96
15314;BME280;7757;52.626;4.746;2023-04-08T07:44:55;102471.03;;;19.30;50.97
15314;BME280;7757;52.626;4.746;2023-04-08T07:47:40;102470.41;;;19.34;50.68
15314;BME280;7757;52.626;4.746;2023-04-08T07:50:27;102468.59;;;19.41;50.44
15314;BME280;7757;52.626;4.746;2023-04-08T07:53:12;102471.94;;;19.43;50.12
15314;BME280;7757;52.626;4.746;2023-04-08T07:55:58;102477.56;;;19.48;49.77
15314;BME280;7757;52.626;4.746;2023-04-08T07:58:43;102475.28;;;19.52;49.81
15314;BME280;7757;52.626;4.746;2023-04-08T08:01:28;102479.91;;;19.58;50.01
15314;BME280;7757;52.626;4.746;2023-04-08T08:04:17;102483.88;;;19.62;49.50
15314;BME280;7757;52.626;4.746;2023-04-08T08:07:04;102480.53;;;19.67;49.38
15314;BME280;7757;52.626;4.746;2023-04-08T08:09:49;102490.56;;;19.73;49.07
15314;BME280;7757;52.626;4.746;2023-04-08T08:12:35;102486.63;;;19.75;49.17
15314;BME280;7757;52.626;4.746;2023-04-08T08:15:20;102488.72;;;19.80;49.23
15314;BME280;7757;52.626;4.746;2023-04-08T08:18:05;102487.28;;;19.84;48.75
15314;BME280;7757;52.626;4.746;2023-04-08T08:20:51;102496.25;;;19.91;48.86
15314;BME280;7757;52.626;4.746;2023-04-08T08:23:37;102495.84;;;19.94;48.92
15314;BME280;7757;52.626;4.746;2023-04-08T08:26:23;102491.03;;;19.96;48.82
15314;BME280;7757;52.626;4.746;2023-04-08T08:29:08;102492.09;;;20.01;48.30
15314;BME280;7757;52.626;4.746;2023-04-08T08:31:53;102493.97;;;20.08;48.55
15314;BME280;7757;52.626;4.746;2023-04-08T08:34:39;102498.56;;;20.14;48.25
15314;BME280;7757;52.626;4.746;2023-04-08T08:37:24;102507.78;;;20.13;48.34
15314;BME280;7757;52.626;4.746;2023-04-08T08:40:13;102517.59;;;20.20;48.28
15314;BME280;7757;52.626;4.746;2023-04-08T08:42:58;102516.56;;;20.21;48.12
15314;BME280;7757;52.626;4.746;2023-04-08T08:45:44;102516.97;;;20.25;48.00
15314;BME280;7757;52.626;4.746;2023-04-08T08:48:30;102515.94;;;20.26;47.99
15314;BME280;7757;52.626;4.746;2023-04-08T08:51:15;102516.78;;;20.26;48.41
15314;BME280;7757;52.626;4.746;2023-04-08T08:54:01;102523.28;;;20.25;47.97
15314;BME280;7757;52.626;4.746;2023-04-08T08:56:48;102523.28;;;20.25;48.01
15314;BME280;7757;52.626;4.746;2023-04-08T08:59:33;102521.56;;;20.24;47.73
15314;BME280;7757;52.626;4.746;2023-04-08T09:02:23;102519.28;;;20.21;47.89
15314;BME280;7757;52.626;4.746;2023-04-08T09:05:10;102508.41;;;20.15;47.82
15314;BME280;7757;52.626;4.746;2023-04-08T09:07:55;102511.53;;;20.18;47.80
15314;BME280;7757;52.626;4.746;2023-04-08T09:10:41;102510.91;;;20.16;48.45
15314;BME280;7757;52.626;4.746;2023-04-08T09:13:34;102502.53;;;20.11;48.02
15314;BME280;7757;52.626;4.746;2023-04-08T09:16:20;102500.03;;;20.10;48.21
15314;BME280;7757;52.626;4.746;2023-04-08T09:19:08;102499.38;;;20.08;48.16
15314;BME280;7757;52.626;4.746;2023-04-08T09:22:04;102505.78;;;19.47;48.99
15314;BME280;7757;52.626;4.746;2023-04-08T09:24:50;102510.25;;;19.27;49.14
15314;BME280;7757;52.626;4.746;2023-04-08T09:27:35;102506.88;;;19.19;49.47
15314;BME280;7757;52.626;4.746;2023-04-08T09:30:24;102509.56;;;19.12;49.36
15314;BME280;7757;52.626;4.746;2023-04-08T09:33:10;102512.03;;;19.07;49.68
15314;BME280;7757;52.626;4.746;2023-04-08T09:35:55;102502.41;;;18.98;49.85
15314;BME280;7757;52.626;4.746;2023-04-08T09:38:41;102494.44;;;18.97;50.38
15314;BME280;7757;52.626;4.746;2023-04-08T09:41:27;102505.13;;;18.98;49.98
15314;BME280;7757;52.626;4.746;2023-04-08T09:44:12;102503.63;;;18.95;50.48
15314;BME280;7757;52.626;4.746;2023-04-08T09:47:07;102506.31;;;18.95;50.05
15314;BME280;7757;52.626;4.746;2023-04-08T09:49:57;102516.94;;;18.90;50.28
15314;BME280;7757;52.626;4.746;2023-04-08T09:52:47;102513.59;;;18.88;50.20
15314;BME280;7757;52.626;4.746;2023-04-08T09:55:38;102514.63;;;18.87;50.14
15314;BME280;7757;52.626;4.746;2023-04-08T09:58:27;102511.69;;;18.82;50.57
15314;BME280;7757;52.626;4.746;2023-04-08T10:01:13;102515.25;;;18.83;50.66
15314;BME280;7757;52.626;4.746;2023-04-08T10:04:02;102512.09;;;18.79;50.51
15314;BME280;7757;52.626;4.746;2023-04-08T10:06:51;102513.31;;;18.77;50.48
15314;BME280;7757;52.626;4.746;2023-04-08T10:09:38;102512.25;;;18.71;50.82
15314;BME280;7757;52.626;4.746;2023-04-08T10:12:26;102517.66;;;18.71;50.93
15314;BME280;7757;52.626;4.746;2023-04-08T10:15:22;102521.59;;;18.69;51.00
15314;BME280;7757;52.626;4.746;2023-04-08T10:18:29;102519.09;;;18.67;51.04
15314;BME280;7757;52.626;4.746;2023-04-08T10:21:34;102520.72;;;18.62;51.20
15314;BME280;7757;52.626;4.746;2023-04-08T10:24:19;102522.75;;;18.53;51.32
15314;BME280;7757;52.626;4.746;2023-04-08T10:27:37;102524.41;;;18.54;51.42
15314;BME280;7757;52.626;4.746;2023-04-08T10:30:42;102529.59;;;18.49;51.56
15314;BME280;7757;52.626;4.746;2023-04-08T10:33:32;102519.03;;;18.39;51.39
15314;BME280;7757;52.626;4.746;2023-04-08T10:36:17;102533.88;;;18.44;51.41
15314;BME280;7757;52.626;4.746;2023-04-08T10:39:04;102525.13;;;18.42;51.68
15314;BME280;7757;52.626;4.746;2023-04-08T10:41:50;102534.66;;;18.37;51.82
15314;BME280;7757;52.626;4.746;2023-04-08T10:44:35;102536.75;;;18.35;52.12
15314;BME280;7757;52.626;4.746;2023-04-08T10:47:24;102527.78;;;18.35;51.70
15314;BME280;7757;52.626;4.746;2023-04-08T10:50:12;102522.13;;;18.30;52.23
15314;BME280;7757;52.626;4.746;2023-04-08T10:52:57;102530.25;;;18.30;52.29
15314;BME280;7757;52.626;4.746;2023-04-08T10:55:44;102516.25;;;18.26;52.14
15314;BME280;7757;52.626;4.746;2023-04-08T10:58:30;102522.69;;;18.25;51.95
15314;BME280;7757;52.626;4.746;2023-04-08T11:01:15;102515.78;;;18.23;51.94
15314;BME280;7757;52.626;4.746;2023-04-08T11:04:00;102511.16;;;18.17;51.91
15314;BME280;7757;52.626;4.746;2023-04-08T11:06:46;102521.81;;;18.18;52.70
15314;BME280;7757;52.626;4.746;2023-04-08T11:09:33;102520.13;;;18.17;52.24
15314;BME280;7757;52.626;4.746;2023-04-08T11:12:22;102518.06;;;18.19;52.82
15314;BME280;7757;52.626;4.746;2023-04-08T11:15:08;102515.56;;;18.18;52.08
15314;BME280;7757;52.626;4.746;2023-04-08T11:17:54;102499.63;;;18.08;52.23
15314;BME280;7757;52.626;4.746;2023-04-08T11:20:42;102509.47;;;18.16;52.33
15314;BME280;7757;52.626;4.746;2023-04-08T11:23:27;102498.22;;;18.12;52.09
15314;BME280;7757;52.626;4.746;2023-04-08T11:26:13;102507.16;;;18.13;52.41
15314;BME280;7757;52.626;4.746;2023-04-08T11:29:00;102508.00;;;18.13;52.56
15314;BME280;7757;52.626;4.746;2023-04-08T11:31:46;102499.88;;;18.13;52.10
15314;BME280;7757;52.626;4.746;2023-04-08T11:34:32;102510.53;;;18.15;52.26
15314;BME280;7757;52.626;4.746;2023-04-08T11:37:18;102513.41;;;18.13;52.48
15314;BME280;7757;52.626;4.746;2023-04-08T11:40:06;102507.59;;;18.16;52.17
15314;BME280;7757;52.626;4.746;2023-04-08T11:42:52;102493.88;;;18.18;51.95
15314;BME280;7757;52.626;4.746;2023-04-08T11:45:39;102502.84;;;18.18;51.89
15314;BME280;7757;52.626;4.746;2023-04-08T11:48:24;102506.19;;;18.20;52.48
15314;BME280;7757;52.626;4.746;2023-04-08T11:51:10;102499.88;;;18.62;51.87
15314;BME280;7757;52.626;4.746;2023-04-08T11:53:55;102515.78;;;18.72;51.40
15314;BME280;7757;52.626;4.746;2023-04-08T11:56:44;102527.63;;;18.43;52.49
15314;BME280;7757;52.626;4.746;2023-04-08T11:59:30;102526.06;;;18.27;52.03
15314;BME280;7757;52.626;4.746;2023-04-08T12:02:17;102524.13;;;18.21;51.82
15314;BME280;7757;52.626;4.746;2023-04-08T12:05:02;102522.00;;;18.17;52.11
15314;BME280;7757;52.626;4.746;2023-04-08T12:07:48;102533.44;;;18.19;52.18
15314;BME280;7757;52.626;4.746;2023-04-08T12:10:33;102527.63;;;18.15;52.26
15314;BME280;7757;52.626;4.746;2023-04-08T12:13:18;102521.34;;;18.15;52.26
15314;BME280;7757;52.626;4.746;2023-04-08T12:16:04;102529.09;;;18.18;52.26
15314;BME280;7757;52.626;4.746;2023-04-08T12:18:51;102531.81;;;18.18;52.03
15314;BME280;7757;52.626;4.746;2023-04-08T12:21:36;102521.81;;;18.18;52.27
15314;BME280;7757;52.626;4.746;2023-04-08T12:24:21;102525.53;;;18.17;52.08
15314;BME280;7757;52.626;4.746;2023-04-08T12:27:06;102508.84;;;18.14;52.20
15314;BME280;7757;52.626;4.746;2023-04-08T12:29:52;102518.44;;;18.16;52.47
15314;BME280;7757;52.626;4.746;2023-04-08T12:32:38;102508.84;;;18.14;52.57
15314;BME280;7757;52.626;4.746;2023-04-08T12:35:25;102520.97;;;18.18;52.46
15314;BME280;7757;52.626;4.746;2023-04-08T12:38:10;102516.78;;;18.15;52.37
15314;BME280;7757;52.626;4.746;2023-04-08T12:40:55;102493.44;;;18.14;52.37
15314;BME280;7757;52.626;4.746;2023-04-08T12:43:41;102508.28;;;18.18;52.44
15314;BME280;7757;52.626;4.746;2023-04-08T12:46:26;102503.88;;;18.17;52.20
15314;BME280;7757;52.626;4.746;2023-04-08T12:49:12;102499.03;;;18.13;52.58
15314;BME280;7757;52.626;4.746;2023-04-08T12:51:59;102495.69;;;18.11;52.25
15314;BME280;7757;52.626;4.746;2023-04-08T12:54:44;102505.09;;;18.15;52.18
15314;BME280;7757;52.626;4.746;2023-04-08T12:57:30;102503.63;;;18.12;52.24
15314;BME280;7757;52.626;4.746;2023-04-08T13:00:15;102509.28;;;18.17;51.90
15314;BME280;7757;52.626;4.746;2023-04-08T13:03:06;102509.91;;;18.19;51.73
15314;BME280;7757;52.626;4.746;2023-04-08T13:05:51;102507.03;;;18.21;52.04
15314;BME280;7757;52.626;4.746;2023-04-08T13:08:38;102507.66;;;18.23;52.22
15314;BME280;7757;52.626;4.746;2023-04-08T13:11:23;102510.59;;;18.21;52.20
15314;BME280;7757;52.626;4.746;2023-04-08T13:14:08;102511.00;;;18.25;51.99
15314;BME280;7757;52.626;4.746;2023-04-08T13:16:56;102506.25;;;18.27;52.10
15314;BME280;7757;52.626;4.746;2023-04-08T13:19:41;102501.09;;;18.32;51.98
15314;BME280;7757;52.626;4.746;2023-04-08T13:22:26;102501.53;;;18.35;51.69
15314;BME280;7757;52.626;4.746;2023-04-08T13:25:13;102508.28;;;18.46;51.57
15314;BME280;7757;52.626;4.746;2023-04-08T13:27:58;102510.44;;;18.51;51.51
15314;BME280;7757;52.626;4.746;2023-04-08T13:30:44;102502.94;;;18.53;51.31
15314;BME280;7757;52.626;4.746;2023-04-08T13:33:29;102507.97;;;18.56;50.79
15314;BME280;7757;52.626;4.746;2023-04-08T13:36:15;102502.53;;;18.56;51.45
15314;BME280;7757;52.626;4.746;2023-04-08T13:39:00;102490.88;;;18.55;51.66
15314;BME280;7757;52.626;4.746;2023-04-08T13:41:47;102480.63;;;18.51;51.38
15314;BME280;7757;52.626;4.746;2023-04-08T13:44:32;102485.25;;;18.57;51.58
15314;BME280;7757;52.626;4.746;2023-04-08T13:47:17;102485.88;;;18.59;51.68
15314;BME280;7757;52.626;4.746;2023-04-08T13:50:04;102479.44;;;18.60;51.52
15314;BME280;7757;52.626;4.746;2023-04-08T13:52:49;102481.31;;;18.59;51.37
15314;BME280;7757;52.626;4.746;2023-04-08T13:55:34;102487.75;;;18.58;51.87
15314;BME280;7757;52.626;4.746;2023-04-08T13:58:21;102489.84;;;18.56;51.76
15314;BME280;7757;52.626;4.746;2023-04-08T14:01:07;102487.13;;;18.56;51.68
15314;BME280;7757;52.626;4.746;2023-04-08T14:03:52;102482.56;;;18.57;51.59
15314;BME280;7757;52.626;4.746;2023-04-08T14:06:37;102480.41;;;18.52;51.70
15314;BME280;7757;52.626;4.746;2023-04-08T14:09:23;102477.53;;;18.54;51.62
15314;BME280;7757;52.626;4.746;2023-04-08T14:12:08;102487.75;;;18.58;51.52
15314;BME280;7757;52.626;4.746;2023-04-08T14:14:55;102489.63;;;18.58;52.05
15314;BME280;7757;52.626;4.746;2023-04-08T14:17:40;102484.41;;;18.56;52.24
15314;BME280;7757;52.626;4.746;2023-04-08T14:20:26;102485.88;;;18.59;52.13
15314;BME280;7757;52.626;4.746;2023-04-08T14:23:11;102491.31;;;18.59;52.43
15314;BME280;7757;52.626;4.746;2023-04-08T14:25:56;102483.34;;;18.57;52.03
15314;BME280;7757;52.626;4.746;2023-04-08T14:28:44;102482.34;;;18.58;52.06
15314;BME280;7757;52.626;4.746;2023-04-08T14:31:32;102480.66;;;18.57;52.45
15314;BME280;7757;52.626;4.746;2023-04-08T14:34:17;102489.84;;;18.56;52.57
15314;BME280;7757;52.626;4.746;2023-04-08T14:37:03;102484.41;;;18.56;52.04
15314;BME280;7757;52.626;4.746;2023-04-08T14:39:48;102479.19;;;18.55;52.14
15314;BME280;7757;52.626;4.746;2023-04-08T14:42:34;102472.69;;;18.49;52.32